Hilversum Aerodrome

EHHV · Nordholland, Niederlande

METAR-Geschichte EHHV · Hilversum Aerodrome

Unten siehst du die METARs der letzten paar Tage. Wähle ein Jahr, um ältere METARs ab dem Jahr 2007 zu durchsuchen.

3. Dezember 2022

Uhrzeit Code Wetter Temp. Sichtweite Wolkendecke Wind METAR/SPECI
18:55
M
1 °C 9 km 1.700 ft 070° 070° 11 kt METAR EHAM 031755Z 07011KT 9000 BKN017 01/M02 Q1020 NOSIG
18:25
M
1 °C 9 km 1.700 ft 070° 070° 11 kt METAR EHAM 031725Z 07011KT 040V100 9000 BKN017 01/M02 Q1020 NOSIG
17:55
M
1 °C 10 km+ 1.700 ft 070° 070° 8 kt METAR EHAM 031655Z 07008KT 9999 BKN017 01/M02 Q1020 NOSIG
17:25
M
1 °C 10 km+ 1.800 ft 070° 070° 12 kt METAR EHAM 031625Z 07012KT 9999 BKN018 01/M02 Q1020 NOSIG
16:55
M
1 °C 8 km 1.700 ft 080° 080° 12 kt METAR EHAM 031555Z 08012KT 050V110 8000 BKN017 01/M02 Q1020 NOSIG
16:25
M
1 °C 8 km 1.700 ft 080° 080° 10 kt METAR EHAM 031525Z 08010KT 050V110 8000 BKN017 01/M02 Q1020 NOSIG
15:55
M
1 °C 8 km 1.600 ft 070° 070° 11 kt METAR EHAM 031455Z 07011KT 8000 FEW014 BKN016 01/M02 Q1020 NOSIG
15:25
M
2 °C 9 km 1.600 ft 070° 070° 12 kt METAR EHAM 031425Z 07012KT 040V100 9000 FEW014 BKN016 02/M01 Q1020 NOSIG
14:55
M
2 °C 9 km 1.600 ft 080° 080° 10 kt METAR EHAM 031355Z 08010KT 050V120 9000 FEW014 BKN016 02/M01 Q1020 NOSIG
14:25
M
2 °C 9 km 1.400 ft 070° 070° 10 kt METAR EHAM 031325Z 07010KT 9000 FEW012 BKN014 02/M01 Q1021 BECMG BKN016
13:55
M
2 °C 9 km 1.500 ft 080° 080° 9 kt METAR EHAM 031255Z 08009KT 9000 FEW014 BKN015 02/M01 Q1021 TEMPO BKN014
13:25
M
2 °C 10 km+ 1.500 ft 090° 090° 11 kt METAR EHAM 031225Z 09011KT 9999 FEW014 BKN015 02/M01 Q1021 TEMPO BKN014
12:55
M
2 °C 10 km+ 1.500 ft 070° 070° 10 kt METAR EHAM 031155Z 07010KT 9999 FEW014 BKN015 02/M01 Q1021 TEMPO BKN014
12:25
M
2 °C 10 km+ 1.600 ft 070° 070° 12 kt METAR EHAM 031125Z 07012KT 030V100 9999 FEW015 BKN016 02/M01 Q1022 TEMPO BKN014
11:55
M
2 °C 10 km+ 1.700 ft 080° 080° 14 kt METAR EHAM 031055Z 08014KT 040V120 9999 FEW015 BKN017 02/M01 Q1022 NOSIG
11:25
V
2 °C 10 km+ 4.100 ft 080° 080° 14 kt METAR EHAM 031025Z 08014KT 050V110 9999 FEW015 SCT018 BKN041 02/M01 Q1022 NOSIG
10:55
V
3 °C 10 km+ 4.300 ft 070° 070° 12 kt METAR EHAM 030955Z 07012KT 030V110 9999 FEW015 SCT018 BKN043 03/M01 Q1022 NOSIG
10:25
M
3 °C 10 km+ 1.700 ft 080° 080° 12 kt METAR EHAM 030925Z 08012KT 9999 SCT013 BKN017 03/M01 Q1022 BECMG BKN040
09:55
M
3 °C 10 km+ 1.300 ft 080° 080° 13 kt METAR EHAM 030855Z 08013KT 9999 BKN013 BKN017 03/00 Q1022 NOSIG
09:25
M
3 °C 10 km+ 1.500 ft 080° 080° 13 kt METAR EHAM 030825Z 08013KT 050V110 9999 FEW013 BKN015 03/00 Q1022 TEMPO BKN014
08:55
M
3 °C 10 km+ 1.700 ft 080° 080° 14 kt METAR EHAM 030755Z 08014KT 050V110 9999 FEW015 BKN017 03/M00 Q1022 NOSIG
08:25
M
3 °C 10 km+ 1.700 ft 080° 080° 13 kt METAR EHAM 030725Z 08013KT 050V110 9999 FEW015 BKN017 03/M00 Q1022 NOSIG
07:55
M
3 °C 10 km+ 1.800 ft 080° 080° 13 kt METAR EHAM 030655Z 08013KT 050V120 9999 FEW015 BKN018 03/M00 Q1022 NOSIG
07:25
M
3 °C 10 km+ 1.700 ft 070° 070° 12 kt METAR EHAM 030625Z 07012KT 040V100 9999 FEW014 BKN017 03/00 Q1022 NOSIG
06:55
M
3 °C 10 km+ 1.600 ft 070° 070° 15 kt METAR EHAM 030555Z 07015KT 040V100 9999 FEW014 BKN016 03/00 Q1023 NOSIG
06:25
M
3 °C 10 km+ 1.400 ft 080° 080° 13 kt METAR EHAM 030525Z 08013KT 050V120 9999 FEW012 BKN014 03/00 Q1023 BECMG BKN018
05:55
M
3 °C 10 km+ 1.400 ft 080° 080° 12 kt METAR EHAM 030455Z 08012KT 050V120 9999 BKN014 03/00 Q1023 BECMG BKN018
05:25
M
4 °C 10 km+ 1.900 ft 080° 080° 13 kt METAR EHAM 030425Z 08013KT 9999 SCT016 BKN019 04/00 Q1023 TEMPO BKN014
04:55
M
4 °C 10 km+ 2.300 ft 060° 060° 13 kt METAR EHAM 030355Z 06013KT 030V090 9999 FEW013 BKN023 04/01 Q1023 TEMPO BKN018
04:25
M
4 °C 10 km+ 2.400 ft 070° 070° 11 kt METAR EHAM 030325Z 07011KT 030V090 9999 FEW013 BKN024 04/01 Q1023 TEMPO BKN018
03:55
M
3 °C 10 km+ 2.300 ft 070° 070° 12 kt METAR EHAM 030255Z 07012KT 9999 FEW015 BKN023 03/00 Q1024 TEMPO BKN018
03:25
M
3 °C 10 km+ 2.300 ft 060° 060° 10 kt METAR EHAM 030225Z 06010KT 030V090 9999 FEW016 BKN023 03/M00 Q1024 TEMPO BKN018
02:55
M
3 °C 10 km+ 2.300 ft 060° 060° 12 kt METAR EHAM 030155Z 06012KT 9999 FEW016 BKN023 03/M00 Q1024 TEMPO BKN018
02:25
M
3 °C 10 km+ 1.800 ft 060° 060° 15 kt METAR EHAM 030125Z 06015KT 030V090 9999 FEW016 BKN018 03/M00 Q1024 BECMG BKN022
01:55
M
3 °C 10 km+ 2.100 ft 050° 050° 13 kt METAR EHAM 030055Z 05013KT 020V090 9999 FEW017 BKN021 03/M00 Q1024 NOSIG
01:25
M
3 °C 10 km+ 2.200 ft 050° 050° 13 kt METAR EHAM 030025Z 05013KT 020V080 9999 FEW017 BKN022 03/M01 Q1024 NOSIG
00:55
M
3 °C 10 km+ 1.900 ft 070° 070° 15 kt METAR EHAM 022355Z 07015KT 9999 BKN019 03/M01 Q1024 BECMG BKN022
00:25
M
2 °C 10 km+ 1.800 ft 080° 080° 14 kt METAR EHAM 022325Z 08014KT 050V110 9999 BKN018 02/M01 Q1025 BECMG BKN022

2. Dezember 2022

Uhrzeit Code Wetter Temp. Sichtweite Wolkendecke Wind METAR/SPECI
23:55
M
2 °C 10 km+ 1.700 ft 070° 070° 15 kt METAR EHAM 022255Z 07015KT 040V100 9999 BKN017 02/M01 Q1025 NOSIG
23:25
M
2 °C 10 km+ 1.600 ft 060° 060° 13 kt METAR EHAM 022225Z 06013KT 030V090 9999 BKN016 02/M01 Q1025 NOSIG
22:55
M
2 °C 10 km+ 1.600 ft 060° 060° 14 kt METAR EHAM 022155Z 06014KT 030V090 9999 FEW014 BKN016 02/M01 Q1025 NOSIG
22:25
M
2 °C 10 km+ 1.600 ft 070° 070° 16 kt METAR EHAM 022125Z 07016KT 040V100 9999 FEW014 BKN016 02/M01 Q1025 NOSIG
21:55
M
3 °C 10 km+ 1.600 ft 060° 060° 16 kt METAR EHAM 022055Z 06016KT 9999 FEW014 BKN016 03/M00 Q1025 NOSIG
21:25
M
3 °C 10 km+ 1.600 ft 070° 070° 15 kt METAR EHAM 022025Z 07015KT 9999 FEW014 BKN016 03/M01 Q1025 NOSIG
20:55
M
2 °C 10 km+ 1.600 ft 070° 070° 13 kt METAR EHAM 021955Z 07013KT 040V110 9999 BKN016 02/M01 Q1025 NOSIG
20:25
M
3 °C 10 km+ 1.600 ft 070° 070° 15 kt METAR EHAM 021925Z 07015KT 040V110 9999 BKN016 03/M01 Q1025 NOSIG
19:55
M
3 °C 10 km+ 1.600 ft 070° 070° 15 kt METAR EHAM 021855Z 07015KT 040V100 9999 BKN016 03/M00 Q1025 NOSIG
19:25
M
3 °C 10 km+ 1.600 ft 070° 070° 16 kt METAR EHAM 021825Z 07016KT 030V090 9999 FEW013 BKN016 03/M01 Q1025 NOSIG
18:55
M
3 °C 9 km 1.500 ft 070° 070° 15 kt METAR EHAM 021755Z 07015KT 030V110 9000 FEW012 BKN015 03/M00 Q1025 NOSIG
18:25
M
3 °C 9 km 1.400 ft 070° 070° 15 kt METAR EHAM 021725Z 07015KT 040V100 9000 FEW012 BKN014 03/00 Q1025 BECMG BKN016
17:55
M
3 °C 8 km 1.500 ft 070° 070° 13 kt METAR EHAM 021655Z 07013KT 8000 SCT012 BKN015 03/00 Q1025 TEMPO BKN014
17:25
M
3 °C 9 km 1.600 ft 070° 070° 16 kt METAR EHAM 021625Z 07016KT 040V100 9000 SCT012 BKN016 03/00 Q1025 TEMPO 7000
16:55
M
3 °C 9 km 1.600 ft 070° 070° 11 kt METAR EHAM 021555Z 07011KT 030V110 9000 FEW012 BKN016 03/00 Q1025 TEMPO 7000
16:25
M
3 °C 10 km+ 1.600 ft 070° 070° 12 kt METAR EHAM 021525Z 07012KT 9999 FEW013 BKN016 BKN036 03/00 Q1025 NOSIG
15:55
M
3 °C 10 km+ 1.600 ft 060° 060° 13 kt METAR EHAM 021455Z 06013KT 030V100 9999 FEW012 BKN016 BKN034 03/00 Q1024 TEMPO BKN014
15:25
M
3 °C 10 km+ 2.700 ft 070° 070° 16 kt METAR EHAM 021425Z 07016KT 040V100 9999 SCT016 BKN027 03/M00 Q1024 TEMPO BKN014
14:55
M
3 °C 10 km+ 2.400 ft 070° 070° 13 kt METAR EHAM 021355Z 07013KT 040V110 9999 SCT015 BKN024 03/M00 Q1024 TEMPO BKN014
14:25
M
3 °C 10 km+ 1.700 ft 070° 070° 12 kt METAR EHAM 021325Z 07012KT 050V110 9999 BKN017 03/M00 Q1024 TEMPO BKN022
13:55
M
3 °C 10 km+ 1.600 ft 060° 060° 14 kt METAR EHAM 021255Z 06014KT 030V100 9999 BKN016 03/00 Q1024 TEMPO BKN022
13:25
M
3 °C 9 km 1.200 ft 070° 070° 13 kt METAR EHAM 021225Z 07013KT 040V100 9000 BKN012 03/01 Q1024 BECMG BKN015
12:55
M
3 °C 9 km 1.100 ft 060° 060° 16 kt METAR EHAM 021155Z 06016KT 030V090 9000 BKN011 03/01 Q1025 TEMPO SCT011
12:25
M
3 °C 8 km 1.100 ft 050° 050° 14 kt METAR EHAM 021125Z 05014KT 020V080 8000 BKN011 03/01 Q1025 TEMPO SCT011
11:55
M
3 °C 9 km 1.100 ft 060° 060° 14 kt METAR EHAM 021055Z 06014KT 030V100 9000 BKN011 03/01 Q1025 TEMPO SCT011
11:25
M
3 °C 9 km 1.100 ft 060° 060° 13 kt METAR EHAM 021025Z 06013KT 030V100 9000 BKN011 03/01 Q1025 TEMPO SCT011
10:55
V
4 °C 10 km+ - 040° 040° 12 kt METAR EHAM 020955Z 04012KT 010V070 9999 SCT011 04/01 Q1025 TEMPO BKN011
10:25
V
4 °C 10 km+ - 050° 050° 9 kt METAR EHAM 020925Z 05009KT 010V080 9999 FEW011 04/01 Q1025 NOSIG
09:55
V
4 °C 10 km+ - 040° 040° 9 kt METAR EHAM 020855Z 04009KT 010V070 9999 FEW012 04/01 Q1025 NOSIG
09:25
V
3 °C 10 km+ - 050° 050° 10 kt METAR EHAM 020825Z 05010KT 020V080 9999 SCT012 03/01 Q1025 NOSIG
08:55
V
3 °C 10 km+ - 050° 050° 11 kt METAR EHAM 020755Z 05011KT 020V080 9999 SCT013 03/01 Q1025 NOSIG
08:25
M
3 °C 9 km 1.600 ft 070° 070° 10 kt METAR EHAM 020725Z 07010KT 040V100 9000 SCT013 BKN016 03/00 Q1025 TEMPO 7000
07:55
M
3 °C 9 km 1.600 ft 050° 050° 13 kt METAR EHAM 020655Z 05013KT 9000 FEW012 BKN016 03/01 Q1025 TEMPO 7000 BKN014
07:25
M
4 °C 8 km 1.600 ft 040° 040° 11 kt METAR EHAM 020625Z 04011KT 8000 FEW011 BKN016 04/01 Q1025 TEMPO BKN012
06:55
M
4 °C 8 km 1.600 ft 040° 040° 10 kt METAR EHAM 020555Z 04010KT 360V070 8000 FEW011 BKN016 04/02 Q1025 TEMPO BKN012
06:25
M
4 °C 7 km 1.600 ft 050° 050° 10 kt METAR EHAM 020525Z 05010KT 7000 FEW010 BKN016 04/02 Q1025 TEMPO BKN012
05:55
M
4 °C 7 km 1.200 ft 050° 050° 10 kt METAR EHAM 020455Z 05010KT 7000 FEW010 BKN012 04/02 Q1025 TEMPO BKN016
05:25
M
4 °C 8 km 1.600 ft 040° 040° 9 kt METAR EHAM 020425Z 04009KT 010V070 8000 SCT011 BKN016 04/02 Q1025 NOSIG
04:55
M
4 °C 8 km 1.700 ft 030° 030° 11 kt METAR EHAM 020355Z 03011KT 350V070 8000 SCT011 BKN017 04/02 Q1026 NOSIG
04:25
M
5 °C 6 km 1.500 ft 040° 040° 7 kt METAR EHAM 020325Z 04007KT 360V070 6000 FEW010 BKN015 05/03 Q1025 NOSIG
03:55
M
5 °C 6 km 1.600 ft 040° 040° 9 kt METAR EHAM 020255Z 04009KT 6000 FEW010 BKN016 05/03 Q1026 NOSIG
03:25
M
5 °C 6 km 1.600 ft 050° 050° 7 kt METAR EHAM 020225Z 05007KT 6000 SCT011 BKN016 05/03 Q1026 NOSIG
02:55
M
5 °C 6 km 1.600 ft 080° 080° 5 kt METAR EHAM 020155Z 08005KT 6000 FEW011 BKN016 05/03 Q1026 NOSIG
02:25
M
5 °C 6 km 1.400 ft 070° 070° 7 kt METAR EHAM 020125Z 07007KT 6000 FEW011 BKN014 05/03 Q1026 TEMPO SCT012
01:55
M
5 °C 6 km 1.400 ft 060° 060° 9 kt METAR EHAM 020055Z 06009KT 020V080 6000 FEW010 BKN014 05/03 Q1026 TEMPO SCT012
01:25
M
5 °C 6 km 1.500 ft 060° 060° 8 kt METAR EHAM 020025Z 06008KT 030V090 6000 SCT008 BKN015 05/03 Q1026 TEMPO BKN012
00:55
M
5 °C 7 km 1.500 ft 060° 060° 8 kt METAR EHAM 012355Z 06008KT 7000 SCT008 BKN015 05/03 Q1027 TEMPO BKN012
00:25
M
5 °C 7 km 1.600 ft 060° 060° 7 kt METAR EHAM 012325Z 06007KT 7000 FEW007 BKN016 BKN047 05/04 Q1027 TEMPO SCT014 BKN047

1. Dezember 2022

Uhrzeit Code Wetter Temp. Sichtweite Wolkendecke Wind METAR/SPECI
23:55
M
5 °C 7 km 1.400 ft 060° 060° 7 kt METAR EHAM 012255Z 06007KT 7000 FEW007 BKN014 BKN047 05/04 Q1027 TEMPO SCT014 BKN047
23:25
V
5 °C 8 km 4.700 ft 050° 050° 8 kt METAR EHAM 012225Z 05008KT 8000 FEW008 BKN047 05/04 Q1027 NOSIG
22:55
V
5 °C 9 km 4.700 ft 080° 080° 7 kt METAR EHAM 012155Z 08007KT 9000 FEW011 BKN047 05/04 Q1027 NOSIG
22:25
V
6 °C 10 km+ 4.800 ft 090° 090° 5 kt METAR EHAM 012125Z 09005KT 9999 BKN048 06/04 Q1027 NOSIG
21:55
V
6 °C 10 km+ - 080° 080° 5 kt METAR EHAM 012055Z 08005KT 9999 FEW012 06/04 Q1027 NOSIG
21:25
V
6 °C 10 km+ - 060° 060° 5 kt METAR EHAM 012025Z 06005KT 040V100 9999 FEW012 06/04 Q1027 NOSIG
20:55
V
6 °C 10 km+ - 030° 030° 5 kt METAR EHAM 011955Z 03005KT 9999 FEW020 06/04 Q1027 NOSIG
20:25
V
6 °C 10 km+ - 040° 040° 4 kt METAR EHAM 011925Z 04004KT CAVOK 06/04 Q1027 NOSIG
19:55
V
6 °C 10 km+ - 020° 020° 3 kt METAR EHAM 011855Z 02003KT CAVOK 06/03 Q1027 NOSIG
19:25
V
6 °C 10 km+ - 010° 010° 3 kt METAR EHAM 011825Z 01003KT 340V040 CAVOK 06/03 Q1027 NOSIG
18:55
V
5 °C 10 km+ - 020° 020° 2 kt METAR EHAM 011755Z 02002KT 9999 FEW022 05/03 Q1027 NOSIG
18:25
V
5 °C 10 km+ - 340° 340° 3 kt METAR EHAM 011725Z 34003KT 9999 FEW022 05/03 Q1028 NOSIG
17:55
V
5 °C 10 km+ - 010° 010° 2 kt METAR EHAM 011655Z 01002KT CAVOK 05/03 Q1027 NOSIG
17:25
V
5 °C 10 km+ - 020° 020° 2 kt METAR EHAM 011625Z 02002KT CAVOK 05/03 Q1028 NOSIG
16:55
V
4 °C 10 km+ - 040° 040° 3 kt METAR EHAM 011555Z 04003KT CAVOK 04/02 Q1027 NOSIG
16:25
V
5 °C 10 km+ - 040° 040° 4 kt METAR EHAM 011525Z 04004KT 9999 FEW020 05/02 Q1027 NOSIG
15:55
V
6 °C 10 km+ - 040° 040° 5 kt METAR EHAM 011455Z 04005KT 9999 FEW021 06/03 Q1027 NOSIG
15:25
V
7 °C 10 km+ - 040° 040° 8 kt METAR EHAM 011425Z 04008KT 9999 FEW022 07/03 Q1027 NOSIG
14:55
V
7 °C 10 km+ - 040° 040° 8 kt METAR EHAM 011355Z 04008KT 9999 FEW022 07/03 Q1028 NOSIG
14:25
V
7 °C 10 km+ - 040° 040° 7 kt METAR EHAM 011325Z 04007KT 360V070 9999 FEW024 07/03 Q1028 NOSIG
13:55
V
8 °C 10 km+ - 030° 030° 7 kt METAR EHAM 011255Z 03007KT 360V060 9999 FEW022 08/03 Q1028 NOSIG
13:25
V
8 °C 10 km+ - 040° 040° 7 kt METAR EHAM 011225Z 04007KT 010V070 9999 FEW019 08/03 Q1028 NOSIG
12:55
V
7 °C 10 km+ - 030° 030° 7 kt METAR EHAM 011155Z 03007KT 360V060 9999 FEW018 07/03 Q1028 NOSIG
12:25
V
7 °C 10 km+ - 040° 040° 7 kt METAR EHAM 011125Z 04007KT 9999 FEW010 07/03 Q1028 NOSIG
11:55
V
7 °C 8 km - 030° 030° 5 kt METAR EHAM 011055Z 03005KT 010V070 8000 FEW009 07/05 Q1029 NOSIG
11:25
M
7 °C 7 km - 040° 040° 6 kt METAR EHAM 011025Z 04006KT 7000 FEW009 07/04 Q1029 BECMG 8000
10:55
M
6 °C 6 km - 030° 030° 5 kt METAR EHAM 010955Z 03005KT 360V060 6000 FEW009 06/05 Q1029 BECMG 8000

Wir und Dritte verfolgen dein Internetverhalten auf unserer Website mit Cookies. Wenn du fortfährst, gehen wir davon aus, dass du mit unserer Cookie-Richtlinie einverstanden bist.